Time;durP1;ratioP1;P1;durP2;ratioP2;P2;SDS_P1;SDS_P2;PMS_P1;PMS_P2;Temp;Humidity;BMP_temperature;BMP_pressure;BME280_temperature;BME280_humidity;BME280_pressure;Samples;Min_cycle;Max_cycle;Signal;HPM_P1;HPM_P2
2021/05/16 00:01:04;;;;;;;;;;;;;;;15.28;66.45;94214.78;5081578;28;19927;-80
2021/05/16 00:03:29;;;;;;;;;;;;;;;15.17;66.58;94212.53;5085671;28;20277;-81
2021/05/16 00:05:54;;;;;;;;;;;;;;;15.11;67.37;94208.38;5052424;28;19954;-81
2021/05/16 00:08:19;;;;;;;;;;;;;;;15.14;66.90;94207.84;5049682;28;20395;-81
2021/05/16 00:10:45;;;;;;;;;;;;;;;15.18;66.86;94208.84;5066807;28;19947;-80
2021/05/16 00:13:10;;;;;;;;;;;;;;;15.13;66.61;94214.13;5068177;28;20026;-79
2021/05/16 00:15:36;;;;;;;;;;;;;;;15.10;66.32;94212.81;5052789;28;19998;-80
2021/05/16 00:18:01;;;;;;;;;;;;;;;15.05;66.20;94214.72;5069148;28;20398;-81
2021/05/16 00:20:27;;;;;;;;;;;;;;;15.01;66.77;94217.88;5066517;28;19935;-82
2021/05/16 00:22:53;;;;;;;;;;;;;;;15.00;66.71;94216.31;5050362;28;19980;-81
2021/05/16 00:25:19;;;;;;;;;;;;;;;15.02;66.23;94213.44;5065724;28;19959;-78
2021/05/16 00:27:44;;;;;;;;;;;;;;;15.01;66.76;94217.09;5083894;28;19927;-79
2021/05/16 00:30:10;;;;;;;;;;;;;;;15.00;66.40;94226.78;5087479;28;20327;-79
2021/05/16 00:32:35;;;;;;;;;;;;;;;15.01;66.31;94227.56;5088247;28;19928;-78
2021/05/16 00:35:01;;;;;;;;;;;;;;;15.00;66.48;94221.56;5053926;28;19924;-78
2021/05/16 00:37:26;;;;;;;;;;;;;;;15.04;66.30;94223.63;5090046;28;19927;-80
2021/05/16 00:39:51;;;;;;;;;;;;;;;15.04;66.65;94221.78;5074295;28;20307;-78
2021/05/16 00:42:17;;;;;;;;;;;;;;;15.07;67.22;94228.31;5072383;28;19920;-79
2021/05/16 00:45:01;;;;;;;;;;;;;;;15.02;67.82;94224.69;5074913;28;19920;-79
2021/05/16 00:47:26;;;;;;;;;;;;;;;15.02;66.65;94222.06;5083826;28;19920;-80
2021/05/16 00:49:52;;;;;;;;;;;;;;;15.01;67.08;94220.50;5048469;28;19924;-80
2021/05/16 00:52:17;;;;;;;;;;;;;;;15.07;67.25;94216.00;5066763;28;19927;-80
2021/05/16 00:54:42;;;;;;;;;;;;;;;15.06;67.82;94214.44;5086996;28;19962;-80
2021/05/16 00:57:08;;;;;;;;;;;;;;;15.09;67.96;94213.09;5085470;28;19967;-80
2021/05/16 00:59:33;;;;;;;;;;;;;;;15.07;67.97;94215.22;5063524;28;20015;-79
2021/05/16 01:01:59;;;;;;;;;;;;;;;15.09;67.89;94223.56;5065601;28;20434;-81
2021/05/16 01:04:24;;;;;;;;;;;;;;;15.10;68.21;94225.91;5051754;28;19947;-81
2021/05/16 01:06:49;;;;;;;;;;;;;;;15.11;68.67;94214.38;5079679;28;19930;-80
2021/05/16 01:09:15;;;;;;;;;;;;;;;15.10;68.74;94222.53;5073308;28;19928;-79
2021/05/16 01:11:44;;;;;;;;;;;;;;;15.09;68.89;94221.75;5094806;28;20311;-81
2021/05/16 01:14:10;;;;;;;;;;;;;;;15.00;69.05;94213.72;5066303;28;19917;-80
2021/05/16 01:16:35;;;;;;;;;;;;;;;15.01;67.58;94214.50;5083010;28;19928;-81
2021/05/16 01:19:00;;;;;;;;;;;;;;;15.04;66.52;94213.94;5082014;28;20396;-81
2021/05/16 01:21:26;;;;;;;;;;;;;;;15.06;66.55;94211.81;5082214;28;19920;-80
2021/05/16 01:23:51;;;;;;;;;;;;;;;15.01;66.76;94199.56;5064716;28;20307;-80
2021/05/16 01:26:16;;;;;;;;;;;;;;;14.99;67.57;94204.28;5070035;28;19916;-80
2021/05/16 01:28:43;;;;;;;;;;;;;;;15.03;67.16;94199.28;5076116;28;19924;-79
2021/05/16 01:31:09;;;;;;;;;;;;;;;15.05;67.42;94197.16;5049679;28;20007;-80
2021/05/16 01:33:34;;;;;;;;;;;;;;;15.03;67.52;94194.03;5047584;28;19960;-81
2021/05/16 01:35:59;;;;;;;;;;;;;;;14.99;67.25;94185.97;5067319;28;20010;-81
2021/05/16 01:38:24;;;;;;;;;;;;;;;14.97;67.69;94190.69;5047849;28;19924;-81
2021/05/16 01:40:50;;;;;;;;;;;;;;;15.02;67.89;94180.16;5056247;28;19920;-79
2021/05/16 01:43:15;;;;;;;;;;;;;;;15.05;67.67;94184.06;5096469;28;19942;-79
2021/05/16 01:45:41;;;;;;;;;;;;;;;15.04;68.37;94179.91;5079373;28;19927;-81
2021/05/16 01:48:06;;;;;;;;;;;;;;;15.05;68.33;94176.22;5080623;28;20421;-81
2021/05/16 01:50:32;;;;;;;;;;;;;;;15.07;68.08;94181.97;5101432;28;19931;-80
2021/05/16 01:52:58;;;;;;;;;;;;;;;15.11;67.65;94187.41;5101355;28;19932;-81
2021/05/16 01:55:23;;;;;;;;;;;;;;;15.08;67.50;94183.53;5071375;28;19987;-81
2021/05/16 01:57:49;;;;;;;;;;;;;;;15.10;67.46;94191.88;5120944;22;19927;-79
2021/05/16 02:00:16;;;;;;;;;;;;;;;15.12;67.36;94195.00;5063431;28;19984;-80
2021/05/16 02:02:41;;;;;;;;;;;;;;;15.12;66.57;94194.22;5067202;28;19978;-79
2021/05/16 02:05:07;;;;;;;;;;;;;;;15.08;65.89;94204.47;5071522;28;19924;-81
2021/05/16 02:07:32;;;;;;;;;;;;;;;15.07;65.81;94202.13;5046101;28;19920;-80
2021/05/16 02:09:57;;;;;;;;;;;;;;;15.08;65.77;94201.84;5071562;28;20396;-80
2021/05/16 02:12:23;;;;;;;;;;;;;;;15.08;66.93;94201.06;5045078;28;19924;-79
2021/05/16 02:14:48;;;;;;;;;;;;;;;15.09;67.60;94206.03;5070493;28;19920;-80
2021/05/16 02:17:13;;;;;;;;;;;;;;;15.10;68.03;94204.97;5072570;28;19925;-80
2021/05/16 02:19:39;;;;;;;;;;;;;;;15.10;67.74;94209.44;5072643;28;20414;-80
2021/05/16 02:22:04;;;;;;;;;;;;;;;15.13;68.10;94201.00;5072187;28;20289;-79
2021/05/16 02:24:29;;;;;;;;;;;;;;;15.10;68.17;94207.59;5071211;28;19921;-79
2021/05/16 02:26:59;;;;;;;;;;;;;;;15.10;68.28;94206.81;5070677;28;20007;-80
2021/05/16 02:29:25;;;;;;;;;;;;;;;15.11;68.17;94203.13;5070173;28;20011;-79
2021/05/16 02:31:50;;;;;;;;;;;;;;;15.11;67.41;94208.38;5071518;28;19959;-79
2021/05/16 02:34:15;;;;;;;;;;;;;;;15.16;66.50;94205.72;5053787;28;19920;-80
2021/05/16 02:36:40;;;;;;;;;;;;;;;15.16;66.63;94210.97;5070625;28;20311;-79
2021/05/16 02:39:06;;;;;;;;;;;;;;;15.15;66.90;94202.34;5077230;28;19920;-79
2021/05/16 02:41:31;;;;;;;;;;;;;;;15.09;67.22;94205.25;5075096;28;19920;-78
2021/05/16 02:43:57;;;;;;;;;;;;;;;15.16;66.61;94205.72;5073456;28;19921;-80
2021/05/16 02:46:22;;;;;;;;;;;;;;;15.11;67.00;94203.91;5045368;28;20011;-80
2021/05/16 02:48:47;;;;;;;;;;;;;;;15.11;66.89;94203.13;5075102;28;20447;-80
2021/05/16 02:51:12;;;;;;;;;;;;;;;15.10;67.87;94206.81;5076342;28;20009;-80
2021/05/16 02:53:38;;;;;;;;;;;;;;;15.19;66.69;94220.88;5087121;28;19970;-79
2021/05/16 02:56:03;;;;;;;;;;;;;;;15.21;65.42;94224.78;5076934;28;20054;-79
2021/05/16 02:58:28;;;;;;;;;;;;;;;15.24;65.21;94226.84;5073092;28;19920;-80
2021/05/16 03:00:54;;;;;;;;;;;;;;;15.21;65.48;94229.25;5048868;28;20344;-80
2021/05/16 03:03:19;;;;;;;;;;;;;;;15.17;66.42;94223.00;5073978;28;19939;-80
2021/05/16 03:05:45;;;;;;;;;;;;;;;15.15;66.15;94225.91;5074388;28;20388;-80
2021/05/16 03:08:10;;;;;;;;;;;;;;;15.16;65.37;94229.31;5074952;28;19954;-80
2021/05/16 03:10:35;;;;;;;;;;;;;;;15.17;65.01;94233.47;5073861;28;19921;-81
2021/05/16 03:13:01;;;;;;;;;;;;;;;15.16;65.15;94230.09;5074124;28;19924;-81
2021/05/16 03:15:26;;;;;;;;;;;;;;;15.17;64.80;94234.25;5073675;28;19928;-81
2021/05/16 03:17:51;;;;;;;;;;;;;;;15.16;65.17;94234.53;5057338;28;19976;-80
2021/05/16 03:20:23;;;;;;;;;;;;;;;15.19;64.36;94236.59;5073774;28;19920;-81
2021/05/16 03:22:48;;;;;;;;;;;;;;;15.16;64.94;94231.91;5075627;28;20422;-81
2021/05/16 03:25:13;;;;;;;;;;;;;;;15.15;64.44;94230.34;5075572;28;19924;-81
2021/05/16 03:27:39;;;;;;;;;;;;;;;15.09;63.80;94229.59;5074375;28;19928;-81
2021/05/16 03:30:08;;;;;;;;;;;;;;;15.08;64.69;94229.88;5074537;28;19921;-80
2021/05/16 03:32:34;;;;;;;;;;;;;;;15.16;64.46;94237.16;5075387;28;19950;-80
2021/05/16 03:34:59;;;;;;;;;;;;;;;15.15;64.41;94233.75;5075663;28;20415;-80
2021/05/16 03:39:53;;;;;;;;;;;;;;;15.20;64.41;94228.47;5110848;22;19932;-79
2021/05/16 03:42:18;;;;;;;;;;;;;;;15.26;64.59;94226.59;5085115;28;20002;-79
2021/05/16 03:44:43;;;;;;;;;;;;;;;15.31;64.73;94221.31;5083899;28;19920;-80
2021/05/16 03:47:08;;;;;;;;;;;;;;;15.38;65.21;94227.00;5064392;28;19927;-81
2021/05/16 03:49:34;;;;;;;;;;;;;;;15.42;64.78;94224.63;5083792;28;19962;-80
2021/05/16 03:51:59;;;;;;;;;;;;;;;15.40;64.15;94222.28;5067749;28;20407;-82
2021/05/16 03:54:24;;;;;;;;;;;;;;;15.43;64.42;94226.19;5067857;28;19967;-80
2021/05/16 03:56:50;;;;;;;;;;;;;;;15.45;64.27;94224.84;5073553;22;19931;-80
2021/05/16 03:59:15;;;;;;;;;;;;;;;15.51;64.50;94236.84;5063538;28;19928;-79
2021/05/16 04:01:40;;;;;;;;;;;;;;;15.56;63.69;94236.81;5063878;28;19921;-81
2021/05/16 04:04:05;;;;;;;;;;;;;;;15.63;64.15;94235.75;5047023;28;19924;-81
2021/05/16 04:06:31;;;;;;;;;;;;;;;15.68;64.42;94238.31;5054778;28;20515;-81
2021/05/16 04:08:56;;;;;;;;;;;;;;;15.72;64.41;94228.81;5064537;28;19928;-81
2021/05/16 04:11:21;;;;;;;;;;;;;;;15.78;63.74;94227.69;5064513;28;19920;-81
2021/05/16 04:13:47;;;;;;;;;;;;;;;15.83;64.08;94227.66;5029947;28;19927;-79
2021/05/16 04:16:12;;;;;;;;;;;;;;;15.89;63.80;94234.41;5069515;28;19928;-80
2021/05/16 04:18:38;;;;;;;;;;;;;;;15.98;63.14;94238.00;5090290;22;19924;-80
2021/05/16 04:21:04;;;;;;;;;;;;;;;16.05;62.55;94238.44;5102760;28;19991;-80
2021/05/16 04:23:29;;;;;;;;;;;;;;;16.06;61.96;94237.38;5087852;28;19959;-79
2021/05/16 04:25:54;;;;;;;;;;;;;;;16.08;61.27;94250.97;5096160;28;19959;-80
2021/05/16 04:28:20;;;;;;;;;;;;;;;16.08;61.10;94252.81;5068825;28;19931;-80
2021/05/16 04:30:45;;;;;;;;;;;;;;;16.07;61.10;94256.50;5068265;28;19920;-80
2021/05/16 04:33:10;;;;;;;;;;;;;;;16.05;61.26;94254.16;5096975;28;20089;-80
2021/05/16 04:35:35;;;;;;;;;;;;;;;16.04;61.92;94252.59;5096535;28;19924;-80
2021/05/16 04:38:01;;;;;;;;;;;;;;;16.04;61.33;94252.59;5071882;28;19920;-81
2021/05/16 04:40:26;;;;;;;;;;;;;;;16.04;61.26;94257.84;5115140;28;19924;-80
2021/05/16 04:42:51;;;;;;;;;;;;;;;16.02;61.49;94254.72;5113970;28;19947;-80
2021/05/16 04:45:17;;;;;;;;;;;;;;;15.98;61.43;94253.72;5113880;28;19920;-80
2021/05/16 04:47:42;;;;;;;;;;;;;;;15.96;61.71;94255.06;5113965;28;19920;-80
2021/05/16 04:50:07;;;;;;;;;;;;;;;15.93;61.98;94247.75;5096319;28;20120;-81
2021/05/16 04:52:33;;;;;;;;;;;;;;;15.88;61.65;94251.19;5114544;28;19919;-80
2021/05/16 04:55:01;;;;;;;;;;;;;;;15.90;62.07;94251.69;5097053;28;19939;-80
2021/05/16 04:57:26;;;;;;;;;;;;;;;15.88;62.10;94261.69;5093271;28;19920;-81
2021/05/16 04:59:53;;;;;;;;;;;;;;;15.88;62.24;94251.19;5072477;28;20009;-82
2021/05/16 05:02:19;;;;;;;;;;;;;;;15.93;61.52;94255.59;5097063;28;19938;-80
2021/05/16 05:04:44;;;;;;;;;;;;;;;15.99;61.49;94259.75;5096188;28;19948;-78
2021/05/16 05:07:09;;;;;;;;;;;;;;;16.03;61.20;94266.00;5096197;28;19923;-78
2021/05/16 05:09:35;;;;;;;;;;;;;;;16.06;61.07;94266.22;5069625;28;19920;-78
2021/05/16 05:12:03;;;;;;;;;;;;;;;16.13;61.17;94261.44;5095455;28;19920;-79
2021/05/16 05:14:29;;;;;;;;;;;;;;;16.20;61.02;94268.97;5068959;28;19924;-78
2021/05/16 05:16:55;;;;;;;;;;;;;;;16.29;60.70;94261.25;5097784;28;20486;-78
2021/05/16 05:19:20;;;;;;;;;;;;;;;16.36;60.22;94274.81;5153169;22;20426;-78
2021/05/16 05:21:45;;;;;;;;;;;;;;;16.38;60.11;94267.44;5099433;28;19992;-77
2021/05/16 05:24:11;;;;;;;;;;;;;;;16.38;59.77;94276.09;5092685;28;19943;-81
2021/05/16 05:26:36;;;;;;;;;;;;;;;16.46;60.09;94277.31;5084815;28;19920;-80
2021/05/16 05:29:02;;;;;;;;;;;;;;;16.52;59.64;94284.84;5048816;28;19970;-79
2021/05/16 05:31:27;;;;;;;;;;;;;;;16.62;60.09;94280.53;5066711;28;20285;-78
2021/05/16 05:36:55;;;;;;;;;;;;;;;16.90;59.73;94284.13;5063453;28;19932;-78
2021/05/16 05:39:21;;;;;;;;;;;;;;;16.98;59.22;94286.13;5153587;22;19924;-79
2021/05/16 05:41:48;;;;;;;;;;;;;;;17.03;59.09;94289.44;5094698;28;19926;-79
2021/05/16 05:44:14;;;;;;;;;;;;;;;17.05;58.90;94286.53;5095611;28;19935;-79
2021/05/16 05:46:39;;;;;;;;;;;;;;;17.01;58.99;94288.19;5056853;28;19924;-78
2021/05/16 05:49:04;;;;;;;;;;;;;;;17.04;59.29;94290.22;5097104;28;20445;-78
2021/05/16 05:51:31;;;;;;;;;;;;;;;17.02;58.97;94279.25;5089810;28;20383;-78
2021/05/16 05:53:56;;;;;;;;;;;;;;;17.00;59.15;94284.78;5093608;28;19920;-79
2021/05/16 05:56:21;;;;;;;;;;;;;;;17.08;58.88;94291.22;5094297;28;20415;-80
2021/05/16 05:58:52;;;;;;;;;;;;;;;17.13;58.73;94296.44;5093190;28;19920;-79
2021/05/16 06:01:17;;;;;;;;;;;;;;;17.20;58.50;94288.16;5075901;28;20349;-81
2021/05/16 06:03:52;;;;;;;;;;;;;;;17.27;58.33;94291.22;5093004;28;19920;-80
2021/05/16 06:06:17;;;;;;;;;;;;;;;17.34;58.16;94294.25;5092143;28;19924;-79
2021/05/16 06:08:43;;;;;;;;;;;;;;;17.47;57.80;94293.53;5094224;28;19935;-79
2021/05/16 06:11:08;;;;;;;;;;;;;;;17.55;57.47;94289.47;5094159;28;19928;-79
2021/05/16 06:13:33;;;;;;;;;;;;;;;17.66;57.69;94286.38;5079173;28;19923;-79
2021/05/16 06:15:58;;;;;;;;;;;;;;;17.74;57.58;94286.84;5052975;28;19920;-81
2021/05/16 06:18:24;;;;;;;;;;;;;;;17.85;56.87;94289.00;5077838;28;19920;-80
2021/05/16 06:20:50;;;;;;;;;;;;;;;18.03;57.02;94278.69;5077916;28;19920;-80
2021/05/16 06:23:17;;;;;;;;;;;;;;;18.24;55.71;94285.16;5135030;22;19928;-79
2021/05/16 06:25:42;;;;;;;;;;;;;;;18.45;55.83;94288.94;5113575;28;19949;-79
2021/05/16 06:28:07;;;;;;;;;;;;;;;18.62;55.67;94295.47;5112163;28;19920;-79
2021/05/16 06:30:33;;;;;;;;;;;;;;;18.70;55.40;94297.44;5112176;28;20006;-79
2021/05/16 06:32:58;;;;;;;;;;;;;;;18.70;53.36;94295.56;5094534;28;20307;-79
2021/05/16 06:35:23;;;;;;;;;;;;;;;18.80;53.44;94298.00;5094932;28;20395;-78
2021/05/16 06:37:48;;;;;;;;;;;;;;;18.96;53.37;94295.84;5118055;28;20155;-80
2021/05/16 06:40:14;;;;;;;;;;;;;;;18.96;52.22;94295.84;5123461;28;19947;-79
2021/05/16 06:42:40;;;;;;;;;;;;;;;18.96;52.71;94295.84;5116483;28;19928;-82
2021/05/16 06:45:06;;;;;;;;;;;;;;;18.84;52.01;94287.66;5113128;28;20015;-79
2021/05/16 06:47:31;;;;;;;;;;;;;;;18.84;52.09;94282.38;5075648;28;19920;-80
2021/05/16 06:50:15;;;;;;;;;;;;;;;18.90;51.08;94281.22;5111665;28;19919;-80
2021/05/16 06:52:40;;;;;;;;;;;;;;;19.04;51.51;94276.69;5112771;28;20314;-80
2021/05/16 06:55:07;;;;;;;;;;;;;;;19.13;50.74;94285.44;5112435;28;19920;-80
2021/05/16 06:57:35;;;;;;;;;;;;;;;19.14;50.67;94281.72;5112134;28;20367;-80
2021/05/16 07:00:00;;;;;;;;;;;;;;;19.17;50.39;94275.84;5111983;28;20403;-80
2021/05/16 07:02:26;;;;;;;;;;;;;;;19.27;50.36;94279.34;5111294;28;20022;-80
2021/05/16 07:04:51;;;;;;;;;;;;;;;19.34;50.45;94274.44;5112404;28;19931;-79
2021/05/16 07:07:45;;;;;;;;;;;;;;;19.33;50.13;94283.41;5124966;22;19920;-77
2021/05/16 07:10:11;;;;;;;;;;;;;;;19.44;50.00;94287.38;5073200;28;19946;-79
2021/05/16 07:12:36;;;;;;;;;;;;;;;19.43;50.59;94280.56;5082846;28;20007;-78
2021/05/16 07:15:04;;;;;;;;;;;;;;;19.47;49.91;94279.66;5069138;28;19940;-83
2021/05/16 07:17:30;;;;;;;;;;;;;;;19.50;49.69;94278.25;5066100;28;19927;-81
2021/05/16 07:19:55;;;;;;;;;;;;;;;19.44;49.80;94282.88;5056431;28;19920;-81
2021/05/16 07:22:20;;;;;;;;;;;;;;;19.46;49.02;94277.31;5066444;28;19972;-78
2021/05/16 07:24:46;;;;;;;;;;;;;;;19.44;49.48;94276.84;5066171;28;20407;-81
2021/05/16 07:27:11;;;;;;;;;;;;;;;19.49;49.23;94276.72;5046908;28;20323;-79
2021/05/16 07:29:36;;;;;;;;;;;;;;;19.63;48.02;94272.19;5064694;28;19920;-80
2021/05/16 07:32:01;;;;;;;;;;;;;;;19.80;48.83;94274.13;5066024;28;19942;-80
2021/05/16 07:34:27;;;;;;;;;;;;;;;19.99;48.45;94273.91;5060776;28;20003;-80
2021/05/16 07:36:55;;;;;;;;;;;;;;;20.14;48.23;94280.66;5067785;28;19920;-82
2021/05/16 07:39:20;;;;;;;;;;;;;;;20.34;48.06;94275.63;5072110;28;19993;-79
2021/05/16 07:41:46;;;;;;;;;;;;;;;20.47;47.74;94273.19;5067617;28;19917;-79
2021/05/16 07:44:11;;;;;;;;;;;;;;;20.59;46.98;94276.03;5062888;28;19920;-79
2021/05/16 07:46:36;;;;;;;;;;;;;;;20.75;46.66;94273.75;5029015;28;19920;-79
2021/05/16 07:49:02;;;;;;;;;;;;;;;20.87;45.96;94272.06;5064798;28;19966;-80
2021/05/16 07:51:27;;;;;;;;;;;;;;;20.92;45.27;94274.53;5066683;28;19921;-80
2021/05/16 07:53:55;;;;;;;;;;;;;;;20.97;44.78;94271.75;5065036;28;19927;-79
2021/05/16 07:56:20;;;;;;;;;;;;;;;21.20;44.70;94274.25;5044324;28;19920;-79
2021/05/16 07:58:45;;;;;;;;;;;;;;;21.61;44.71;94278.28;5068039;28;19928;-80
2021/05/16 08:01:11;;;;;;;;;;;;;;;21.99;43.28;94268.56;5068332;28;20391;-79
2021/05/16 08:03:36;;;;;;;;;;;;;;;22.30;42.48;94267.56;5063213;28;19925;-80
2021/05/16 08:06:02;;;;;;;;;;;;;;;22.69;41.65;94267.19;5031839;28;19927;-80
2021/05/16 08:08:27;;;;;;;;;;;;;;;23.05;40.06;94268.53;5032234;28;19970;-80
2021/05/16 08:10:52;;;;;;;;;;;;;;;23.32;40.53;94273.34;5027204;28;20304;-78
2021/05/16 08:13:18;;;;;;;;;;;;;;;23.58;41.19;94267.81;5064509;28;19916;-81
2021/05/16 08:15:48;;;;;;;;;;;;;;;23.86;39.25;94265.38;5061817;28;20292;-80
2021/05/16 08:18:13;;;;;;;;;;;;;;;24.02;38.00;94264.72;5044585;28;19931;-79
2021/05/16 08:20:39;;;;;;;;;;;;;;;23.92;38.04;94272.03;5063604;28;19925;-78
2021/05/16 08:23:04;;;;;;;;;;;;;;;23.89;38.26;94272.66;5061175;28;19924;-80
2021/05/16 08:25:31;;;;;;;;;;;;;;;23.77;38.76;94271.88;5066252;28;19932;-78
2021/05/16 08:27:56;;;;;;;;;;;;;;;23.87;39.10;94264.25;5048995;28;19927;-78
2021/05/16 08:30:21;;;;;;;;;;;;;;;24.03;37.85;94266.28;5046920;28;19921;-78
2021/05/16 08:32:56;;;;;;;;;;;;;;;24.12;38.54;94266.97;5055110;28;19924;-82
2021/05/16 08:35:21;;;;;;;;;;;;;;;24.20;38.53;94261.53;5076145;28;19932;-78
2021/05/16 08:37:49;;;;;;;;;;;;;;;24.24;37.30;94259.81;5049266;28;19925;-81
2021/05/16 08:40:15;;;;;;;;;;;;;;;24.33;37.97;94265.03;5050011;28;19928;-79
2021/05/16 08:42:43;;;;;;;;;;;;;;;24.45;38.41;94262.38;5065939;28;19939;-80
2021/05/16 08:45:12;;;;;;;;;;;;;;;24.50;38.55;94264.03;5048364;28;19921;-80
2021/05/16 08:47:37;;;;;;;;;;;;;;;24.40;36.89;94270.56;5073120;28;19924;-79
2021/05/16 08:50:03;;;;;;;;;;;;;;;24.65;38.17;94270.56;5034970;28;19928;-80
2021/05/16 08:52:29;;;;;;;;;;;;;;;24.65;36.30;94275.88;5074678;28;20439;-79
2021/05/16 08:54:54;;;;;;;;;;;;;;;24.50;36.73;94270.13;5065553;28;19979;-81
2021/05/16 08:57:20;;;;;;;;;;;;;;;24.36;37.34;94269.66;5067102;28;19978;-79
2021/05/16 09:00:04;;;;;;;;;;;;;;;24.42;38.09;94257.72;5072783;28;19924;-81
2021/05/16 09:02:29;;;;;;;;;;;;;;;24.36;36.09;94264.34;5066316;28;19935;-80
2021/05/16 09:04:54;;;;;;;;;;;;;;;24.33;36.56;94264.25;5064775;28;19943;-82
2021/05/16 09:07:27;;;;;;;;;;;;;;;24.27;36.41;94266.31;5052258;28;20342;-77
2021/05/16 09:09:52;;;;;;;;;;;;;;;24.16;36.54;94259.88;5054692;28;19929;-79
2021/05/16 09:12:18;;;;;;;;;;;;;;;24.21;37.79;94262.31;5073176;28;19981;-80
2021/05/16 09:14:49;;;;;;;;;;;;;;;24.27;36.94;94253.03;5069040;28;19920;-79
2021/05/16 09:17:33;;;;;;;;;;;;;;;24.24;36.56;94246.50;5070400;28;19917;-81
2021/05/16 09:20:05;;;;;;;;;;;;;;;24.05;36.46;94243.59;5085924;28;19939;-80
2021/05/16 09:22:30;;;;;;;;;;;;;;;24.11;36.49;94241.50;5077123;28;19931;-80
2021/05/16 09:25:12;;;;;;;;;;;;;;;24.25;36.80;94237.44;5065489;28;20015;-79
2021/05/16 09:27:38;;;;;;;;;;;;;;;24.39;35.87;94237.09;5072802;28;19927;-79
2021/05/16 09:30:16;;;;;;;;;;;;;;;24.26;36.06;94235.56;5077056;28;19948;-83
2021/05/16 09:33:00;;;;;;;;;;;;;;;23.95;36.81;94228.88;5083886;28;20183;-79
2021/05/16 09:35:26;;;;;;;;;;;;;;;23.81;37.08;94228.41;5064844;28;19904;-86
2021/05/16 09:38:15;;;;;;;;;;;;;;;23.73;38.00;94225.84;5077632;28;20382;-84
2021/05/16 09:40:41;;;;;;;;;;;;;;;23.62;37.78;94225.50;5032983;28;20384;-78
2021/05/16 09:43:08;;;;;;;;;;;;;;;23.66;38.16;94218.41;5050980;28;20024;-88
2021/05/16 09:45:40;;;;;;;;;;;;;;;23.68;37.32;94213.56;5058059;28;19925;-79
2021/05/16 09:48:17;;;;;;;;;;;;;;;23.74;36.94;94211.44;5078303;28;19924;-78
2021/05/16 09:50:43;;;;;;;;;;;;;;;23.85;37.75;94213.38;5079136;28;19936;-79
2021/05/16 09:53:09;;;;;;;;;;;;;;;24.04;38.36;94215.47;5047383;28;19924;-82
2021/05/16 09:55:37;;;;;;;;;;;;;;;24.14;37.56;94214.28;5080877;28;19980;-79
2021/05/16 10:00:38;;;;;;;;;;;;;;;24.28;37.38;94204.09;5537228;22;19927;-82
2021/05/16 10:03:06;;;;;;;;;;;;;;;24.28;36.97;94198.78;5287183;22;19939;-79
2021/05/16 10:05:32;;;;;;;;;;;;;;;24.34;37.13;94194.81;5068760;28;19924;-80
2021/05/16 10:07:57;;;;;;;;;;;;;;;24.38;36.58;94193.03;5089188;28;19999;-80
2021/05/16 10:10:22;;;;;;;;;;;;;;;24.01;36.71;94192.25;5087667;28;20327;-77
2021/05/16 10:12:47;;;;;;;;;;;;;;;23.71;37.25;94190.88;5066615;28;20387;-78
2021/05/16 10:15:13;;;;;;;;;;;;;;;23.52;36.82;94181.53;5065435;28;19978;-79
2021/05/16 10:17:39;;;;;;;;;;;;;;;23.47;37.90;94186.28;5065327;28;19920;-80
2021/05/16 10:20:12;;;;;;;;;;;;;;;23.46;38.57;94176.75;5068506;28;19991;-80
2021/05/16 10:22:40;;;;;;;;;;;;;;;23.46;37.57;94182.06;5084429;28;19920;-78
2021/05/16 10:25:06;;;;;;;;;;;;;;;23.40;37.26;94186.00;5087992;28;19924;-79
2021/05/16 10:27:41;;;;;;;;;;;;;;;23.36;37.46;94186.69;5148986;22;19924;-79
2021/05/16 10:30:07;;;;;;;;;;;;;;;23.22;39.09;94180.09;5079938;28;19933;-78
2021/05/16 10:32:34;;;;;;;;;;;;;;;23.07;39.16;94184.13;5086971;28;19920;-79
2021/05/16 10:35:02;;;;;;;;;;;;;;;22.75;41.39;94185.59;5096175;28;19920;-78
2021/05/16 10:37:43;;;;;;;;;;;;;;;22.45;43.50;94203.41;5064364;28;19931;-79
2021/05/16 10:40:21;;;;;;;;;;;;;;;21.98;45.70;94208.78;5081760;28;19920;-82
2021/05/16 10:42:46;;;;;;;;;;;;;;;20.96;51.13;94235.81;5066589;28;20386;-82
2021/05/16 10:45:12;;;;;;;;;;;;;;;20.48;54.55;94253.63;5066537;28;19970;-75
2021/05/16 10:47:50;;;;;;;;;;;;;;;19.71;53.81;94231.91;5078594;28;19925;-75
2021/05/16 10:50:19;;;;;;;;;;;;;;;18.90;54.66;94233.81;5077289;28;19948;-76
2021/05/16 10:52:59;;;;;;;;;;;;;;;18.30;56.38;94242.66;5078791;28;19978;-77
2021/05/16 10:55:34;;;;;;;;;;;;;;;18.05;57.02;94234.44;5074499;28;19921;-76
2021/05/16 10:58:00;;;;;;;;;;;;;;;17.80;58.87;94249.63;5078014;28;19931;-76
2021/05/16 11:00:32;;;;;;;;;;;;;;;17.51;60.42;94230.66;5079017;28;20319;-76
2021/05/16 11:03:04;;;;;;;;;;;;;;;17.25;62.74;94244.22;5074462;28;19924;-76
2021/05/16 11:08:06;;;;;;;;;;;;;;;17.10;65.34;94271.50;5082347;28;20015;-75
2021/05/16 11:10:32;;;;;;;;;;;;;;;16.95;65.78;94291.97;5062767;28;20439;-76
2021/05/16 11:13:27;;;;;;;;;;;;;;;16.10;67.09;94305.78;5080080;28;19924;-74
2021/05/16 11:15:56;;;;;;;;;;;;;;;15.32;68.47;94291.00;5044835;28;20330;-74
2021/05/16 11:18:27;;;;;;;;;;;;;;;15.73;66.17;94294.06;5063942;28;19928;-76
2021/05/16 11:21:02;;;;;;;;;;;;;;;16.31;64.93;94298.50;5044856;28;19927;-75
2021/05/16 11:23:29;;;;;;;;;;;;;;;16.82;64.17;94290.03;5079838;28;20536;-75
2021/05/16 11:25:58;;;;;;;;;;;;;;;17.30;64.11;94283.56;5061992;28;19951;-72
2021/05/16 11:28:24;;;;;;;;;;;;;;;17.84;60.97;94276.91;5062270;28;20303;-77
2021/05/16 11:30:50;;;;;;;;;;;;;;;18.23;58.45;94283.59;5081949;28;19924;-74
2021/05/16 11:33:27;;;;;;;;;;;;;;;18.55;57.69;94275.59;5083002;28;19926;-76
2021/05/16 11:36:03;;;;;;;;;;;;;;;18.84;58.28;94279.75;5063957;28;19920;-77
2021/05/16 11:38:28;;;;;;;;;;;;;;;19.10;56.54;94272.09;5082919;28;19927;-76
2021/05/16 11:40:54;;;;;;;;;;;;;;;19.35;54.31;94275.97;5062102;28;19921;-75
2021/05/16 11:43:29;;;;;;;;;;;;;;;19.46;53.28;94275.44;5079840;28;19970;-74
2021/05/16 11:45:55;;;;;;;;;;;;;;;19.60;52.81;94264.88;5081003;28;19920;-75
2021/05/16 11:48:31;;;;;;;;;;;;;;;19.62;53.02;94260.06;5081925;28;19920;-77
2021/05/16 11:51:09;;;;;;;;;;;;;;;19.67;52.36;94262.56;5063500;28;19977;-78
2021/05/16 11:53:35;;;;;;;;;;;;;;;19.75;52.40;94253.94;5076608;28;20388;-76
2021/05/16 11:56:20;;;;;;;;;;;;;;;19.82;52.52;94260.63;5064065;28;19920;-80
2021/05/16 11:58:46;;;;;;;;;;;;;;;19.71;53.62;94258.28;5082105;28;19920;-76
2021/05/16 12:01:11;;;;;;;;;;;;;;;19.40;54.49;94270.63;5081516;28;19960;-77
2021/05/16 12:03:37;;;;;;;;;;;;;;;19.19;55.79;94286.09;5062715;28;20003;-75
2021/05/16 12:06:03;;;;;;;;;;;;;;;18.91;56.95;94297.81;5081420;28;19920;-77
2021/05/16 12:08:28;;;;;;;;;;;;;;;18.40;58.03;94289.06;5082252;28;19920;-77
2021/05/16 12:11:03;;;;;;;;;;;;;;;18.12;60.28;94290.88;5082357;28;19932;-76
2021/05/16 12:13:28;;;;;;;;;;;;;;;18.05;62.33;94297.59;5064790;28;19927;-75
2021/05/16 12:15:54;;;;;;;;;;;;;;;17.99;63.19;94292.44;5064291;28;19924;-77
2021/05/16 12:18:20;;;;;;;;;;;;;;;17.98;64.58;94285.59;5080563;28;19959;-77
2021/05/16 12:20:45;;;;;;;;;;;;;;;17.99;61.82;94283.75;5089694;22;19935;-77
2021/05/16 12:23:11;;;;;;;;;;;;;;;18.00;60.96;94286.09;5100014;28;20370;-75
2021/05/16 12:25:36;;;;;;;;;;;;;;;18.04;60.65;94288.91;5112392;28;20314;-75
2021/05/16 12:28:05;;;;;;;;;;;;;;;18.12;62.48;94298.00;5112221;28;19924;-76
2021/05/16 12:30:30;;;;;;;;;;;;;;;18.20;62.34;94299.94;5093847;28;20023;-75
2021/05/16 12:32:55;;;;;;;;;;;;;;;18.33;62.48;94308.94;5111118;28;20315;-77
2021/05/16 12:35:21;;;;;;;;;;;;;;;18.46;62.70;94308.94;5116000;28;19931;-77
2021/05/16 12:37:46;;;;;;;;;;;;;;;18.66;62.07;94302.50;5119804;28;19927;-77
2021/05/16 12:40:32;;;;;;;;;;;;;;;18.89;59.48;94301.53;5094432;28;20345;-77
2021/05/16 12:43:09;;;;;;;;;;;;;;;19.21;58.25;94294.50;5266190;22;20600;-78
2021/05/16 12:45:35;;;;;;;;;;;;;;;19.47;58.52;94302.59;5092730;28;20311;-79
2021/05/16 12:48:05;;;;;;;;;;;;;;;19.48;57.84;94304.16;5091529;28;19924;-77
2021/05/16 12:50:31;;;;;;;;;;;;;;;19.47;57.45;94305.25;5072116;28;20457;-77
2021/05/16 12:53:15;;;;;;;;;;;;;;;19.41;57.97;94306.44;5090056;28;19990;-76
2021/05/16 12:58:24;;;;;;;;;;;;;;;19.41;58.01;94306.44;5186736;22;19935;-78
2021/05/16 13:00:49;;;;;;;;;;;;;;;19.35;58.64;94310.25;5111723;28;19920;-76